Time;durP1;ratioP1;P1;durP2;ratioP2;P2;SDS_P1;SDS_P2;PMS_P1;PMS_P2;Temp;Humidity;BMP_temperature;BMP_pressure;BME280_temperature;BME280_humidity;BME280_pressure;Samples;Min_cycle;Max_cycle;Signal;HPM_P1;HPM_P2
2022/02/28 00:02:17;;;;;;;4.03;2.75;;;;;;;;;;1746505;82;21016;-74
2022/02/28 00:04:44;;;;;;;5.10;2.92;;;;;;;;;;1724473;82;21492;-75
2022/02/28 00:07:10;;;;;;;5.72;3.27;;;;;;;;;;1747338;82;21080;-74
2022/02/28 00:09:36;;;;;;;10.05;3.83;;;;;;;;;;1743790;81;21053;-75
2022/02/28 00:12:02;;;;;;;4.67;2.98;;;;;;;;;;1713202;82;20997;-75
2022/02/28 00:14:30;;;;;;;7.45;3.40;;;;;;;;;;1753364;82;21583;-75
2022/02/28 00:16:56;;;;;;;5.20;3.00;;;;;;;;;;1753350;82;21021;-76
2022/02/28 00:19:24;;;;;;;6.33;3.55;;;;;;;;;;1749976;82;21066;-74
2022/02/28 00:21:50;;;;;;;6.92;3.33;;;;;;;;;;1744633;82;21053;-75
2022/02/28 00:24:16;;;;;;;6.50;3.27;;;;;;;;;;1746279;82;21527;-75
2022/02/28 00:26:43;;;;;;;6.62;3.08;;;;;;;;;;1734964;81;21048;-75
2022/02/28 00:29:10;;;;;;;6.22;3.20;;;;;;;;;;1741221;82;21679;-75
2022/02/28 00:31:36;;;;;;;5.87;3.27;;;;;;;;;;1738709;82;21063;-75
2022/02/28 00:34:04;;;;;;;6.10;3.30;;;;;;;;;;1748195;82;20978;-75
2022/02/28 00:36:30;;;;;;;4.60;2.62;;;;;;;;;;1752317;82;21048;-75
2022/02/28 00:38:56;;;;;;;4.67;2.62;;;;;;;;;;1725341;82;21006;-75
2022/02/28 00:41:22;;;;;;;6.08;2.98;;;;;;;;;;1741120;81;21006;-74
2022/02/28 00:43:49;;;;;;;7.28;3.02;;;;;;;;;;1748611;81;21017;-74
2022/02/28 00:46:15;;;;;;;6.83;3.15;;;;;;;;;;1748243;81;21540;-76
2022/02/28 00:48:41;;;;;;;6.28;3.50;;;;;;;;;;1738682;82;21116;-76
2022/02/28 00:51:07;;;;;;;7.08;3.62;;;;;;;;;;1731840;82;21544;-75
2022/02/28 00:53:35;;;;;;;7.45;3.52;;;;;;;;;;1723190;82;21568;-75
2022/02/28 00:56:02;;;;;;;5.50;3.00;;;;;;;;;;1744879;82;20993;-74
2022/02/28 00:58:29;;;;;;;6.33;2.85;;;;;;;;;;1709222;82;21027;-75
2022/02/28 01:00:55;;;;;;;7.85;3.35;;;;;;;;;;1744804;81;21055;-76
2022/02/28 01:03:21;;;;;;;5.65;3.30;;;;;;;;;;1745003;81;21130;-75
2022/02/28 01:05:47;;;;;;;5.67;3.00;;;;;;;;;;1752924;81;21160;-74
2022/02/28 01:08:13;;;;;;;4.65;3.27;;;;;;;;;;1738730;82;21037;-74
2022/02/28 01:10:39;;;;;;;4.15;2.87;;;;;;;;;;1741067;82;21089;-74
2022/02/28 01:13:10;;;;;;;8.50;4.10;;;;;;;;;;1741990;81;21068;-74
2022/02/28 01:15:33;;;;;;;7.03;3.08;;;;;;;;;;1714731;83;21025;-73
2022/02/28 01:17:59;;;;;;;6.20;3.52;;;;;;;;;;1750947;81;21041;-74
2022/02/28 01:20:25;;;;;;;8.33;3.40;;;;;;;;;;1751562;82;21132;-74
2022/02/28 01:22:51;;;;;;;6.30;3.50;;;;;;;;;;1747566;81;21715;-74
2022/02/28 01:25:17;;;;;;;5.80;2.98;;;;;;;;;;1753275;82;21112;-74
2022/02/28 01:27:43;;;;;;;6.87;3.92;;;;;;;;;;1752525;82;21115;-73
2022/02/28 01:30:09;;;;;;;4.67;3.25;;;;;;;;;;1736442;81;21002;-75
2022/02/28 01:32:37;;;;;;;7.53;3.95;;;;;;;;;;1751348;81;21430;-75
2022/02/28 01:35:06;;;;;;;8.25;4.15;;;;;;;;;;1751008;81;21009;-75
2022/02/28 01:37:32;;;;;;;4.72;2.98;;;;;;;;;;1745614;81;21036;-75
2022/02/28 01:39:58;;;;;;;6.12;3.35;;;;;;;;;;1749338;81;21664;-74
2022/02/28 01:42:24;;;;;;;7.15;3.60;;;;;;;;;;1742306;82;21050;-74
2022/02/28 01:44:51;;;;;;;5.72;3.35;;;;;;;;;;1745320;82;21577;-75
2022/02/28 01:47:18;;;;;;;5.85;3.10;;;;;;;;;;1740193;81;21025;-75
2022/02/28 01:49:44;;;;;;;6.85;3.17;;;;;;;;;;1714344;82;21580;-74
2022/02/28 01:52:10;;;;;;;5.58;3.40;;;;;;;;;;1716450;82;20990;-74
2022/02/28 01:54:36;;;;;;;7.17;3.30;;;;;;;;;;1751001;82;21038;-76
2022/02/28 01:57:02;;;;;;;7.47;3.52;;;;;;;;;;1720389;82;21141;-74
2022/02/28 01:59:28;;;;;;;4.03;2.65;;;;;;;;;;1741115;82;20982;-75
2022/02/28 02:04:51;;;;;;;4.85;3.00;;;;;;;;;;1761384;79;21439;-74
2022/02/28 02:07:19;;;;;;;4.85;2.90;;;;;;;;;;1794270;78;21019;-74
2022/02/28 02:09:45;;;;;;;5.50;3.50;;;;;;;;;;1760165;80;21028;-78
2022/02/28 02:12:12;;;;;;;6.80;3.75;;;;;;;;;;1797015;79;21511;-72
2022/02/28 02:14:39;;;;;;;5.97;3.35;;;;;;;;;;1796685;78;20989;-74
2022/02/28 02:17:05;;;;;;;7.78;4.08;;;;;;;;;;1801024;79;21004;-73
2022/02/28 02:19:34;;;;;;;6.72;3.52;;;;;;;;;;1796785;79;21618;-72
2022/02/28 02:22:00;;;;;;;8.55;3.50;;;;;;;;;;1761807;81;21496;-74
2022/02/28 02:24:26;;;;;;;6.10;3.08;;;;;;;;;;1774644;81;21001;-73
2022/02/28 02:26:54;;;;;;;6.20;3.17;;;;;;;;;;1774003;80;21023;-73
2022/02/28 02:29:21;;;;;;;5.05;3.15;;;;;;;;;;1771846;81;21064;-74
2022/02/28 02:31:47;;;;;;;7.20;3.40;;;;;;;;;;1727461;81;21040;-77
2022/02/28 02:34:12;;;;;;;6.47;3.55;;;;;;;;;;1765296;81;21011;-76
2022/02/28 02:36:42;;;;;;;6.00;3.02;;;;;;;;;;1737515;81;21020;-78
2022/02/28 02:39:08;;;;;;;6.58;3.27;;;;;;;;;;1789191;80;21048;-76
2022/02/28 02:41:37;;;;;;;6.08;3.62;;;;;;;;;;1788996;80;21024;-75
2022/02/28 02:44:02;;;;;;;6.25;3.22;;;;;;;;;;1788988;80;21064;-77
2022/02/28 02:46:28;;;;;;;7.17;3.22;;;;;;;;;;1767722;80;21074;-77
2022/02/28 02:48:56;;;;;;;6.75;3.62;;;;;;;;;;1787618;80;21026;-76
2022/02/28 02:51:22;;;;;;;7.03;2.70;;;;;;;;;;1792839;79;21026;-80
2022/02/28 02:53:49;;;;;;;7.72;3.17;;;;;;;;;;1728453;81;21051;-78
2022/02/28 02:56:19;;;;;;;6.15;3.45;;;;;;;;;;1730231;79;21024;-78
2022/02/28 02:58:46;;;;;;;4.58;3.12;;;;;;;;;;1791422;78;21048;-76
2022/02/28 03:01:17;;;;;;;5.03;2.62;;;;;;;;;;1762725;80;21051;-74
2022/02/28 03:03:44;;;;;;;4.25;2.70;;;;;;;;;;1750358;80;21527;-74
2022/02/28 03:06:10;;;;;;;4.85;3.10;;;;;;;;;;1755894;82;21047;-74
2022/02/28 03:08:37;;;;;;;5.67;3.22;;;;;;;;;;1754295;80;21044;-77
2022/02/28 03:11:03;;;;;;;5.75;3.27;;;;;;;;;;1759427;80;21013;-76
2022/02/28 03:13:31;;;;;;;5.65;2.98;;;;;;;;;;1777696;80;21068;-78
2022/02/28 03:15:58;;;;;;;5.55;3.10;;;;;;;;;;1764426;80;21024;-79
2022/02/28 03:18:26;;;;;;;7.17;3.40;;;;;;;;;;1751822;80;20985;-77
2022/02/28 03:20:53;;;;;;;4.65;3.08;;;;;;;;;;1770921;80;21079;-74
2022/02/28 03:23:19;;;;;;;4.35;2.62;;;;;;;;;;1761972;80;21048;-74
2022/02/28 03:25:46;;;;;;;5.92;2.77;;;;;;;;;;1780735;79;21001;-74
2022/02/28 03:28:13;;;;;;;4.55;2.55;;;;;;;;;;1767722;80;21013;-74
2022/02/28 03:30:41;;;;;;;2.60;2.12;;;;;;;;;;1764357;79;20969;-75
2022/02/28 03:33:09;;;;;;;5.05;2.65;;;;;;;;;;1757878;80;20996;-74
2022/02/28 03:35:35;;;;;;;5.80;2.30;;;;;;;;;;1735428;80;22177;-75
2022/02/28 03:38:02;;;;;;;5.95;2.95;;;;;;;;;;1755844;79;21167;-77
2022/02/28 03:40:28;;;;;;;3.92;2.83;;;;;;;;;;1778069;79;21001;-74
2022/02/28 03:42:57;;;;;;;6.05;3.95;;;;;;;;;;1777864;79;21299;-77
2022/02/28 03:45:24;;;;;;;6.30;3.70;;;;;;;;;;1773168;80;21539;-73
2022/02/28 03:47:52;;;;;;;4.83;2.60;;;;;;;;;;1787248;80;21088;-76
2022/02/28 03:50:36;;;;;;;3.17;2.40;;;;;;;;;;1756592;80;21043;-72
2022/02/28 03:53:04;;;;;;;6.28;3.20;;;;;;;;;;1778227;79;21017;-77
2022/02/28 03:55:32;;;;;;;4.28;3.10;;;;;;;;;;1754102;80;20973;-79
2022/02/28 03:57:58;;;;;;;5.10;2.80;;;;;;;;;;1784764;80;21017;-77
2022/02/28 04:00:25;;;;;;;4.53;3.27;;;;;;;;;;1780411;80;21052;-78
2022/02/28 04:02:51;;;;;;;4.95;2.95;;;;;;;;;;1747951;80;21296;-75
2022/02/28 04:05:19;;;;;;;5.75;3.20;;;;;;;;;;1796296;79;21052;-76
2022/02/28 04:07:47;;;;;;;5.08;3.40;;;;;;;;;;1794367;78;21047;-77
2022/02/28 04:10:16;;;;;;;5.80;3.27;;;;;;;;;;1762951;80;21491;-74
2022/02/28 04:12:43;;;;;;;5.45;3.00;;;;;;;;;;1755959;80;20985;-75
2022/02/28 04:15:09;;;;;;;5.50;3.40;;;;;;;;;;1762044;80;21789;-75
2022/02/28 04:17:37;;;;;;;4.00;2.80;;;;;;;;;;1792226;80;21515;-75
2022/02/28 04:20:19;;;;;;;4.42;2.87;;;;;;;;;;1793358;80;21016;-74
2022/02/28 04:22:45;;;;;;;4.75;3.02;;;;;;;;;;1796694;78;21080;-74
2022/02/28 04:25:13;;;;;;;6.30;2.83;;;;;;;;;;1774089;80;21068;-74
2022/02/28 04:27:41;;;;;;;5.08;2.70;;;;;;;;;;1770919;80;21013;-76
2022/02/28 04:30:10;;;;;;;5.28;3.00;;;;;;;;;;1757227;79;21095;-76
2022/02/28 04:32:36;;;;;;;4.83;2.90;;;;;;;;;;1746906;80;21008;-76
2022/02/28 04:35:04;;;;;;;5.05;2.90;;;;;;;;;;1797013;79;21008;-75
2022/02/28 04:37:34;;;;;;;6.37;3.62;;;;;;;;;;1793718;80;21021;-75
2022/02/28 04:40:01;;;;;;;3.80;2.65;;;;;;;;;;1796545;79;21332;-75
2022/02/28 04:42:32;;;;;;;5.08;3.22;;;;;;;;;;1790524;79;21017;-75
2022/02/28 04:44:58;;;;;;;7.92;3.72;;;;;;;;;;1756826;79;20985;-74
2022/02/28 04:47:24;;;;;;;6.70;3.17;;;;;;;;;;1789594;79;21519;-76
2022/02/28 04:50:00;;;;;;;6.75;3.40;;;;;;;;;;1772772;79;21476;-74
2022/02/28 04:52:26;;;;;;;5.55;3.33;;;;;;;;;;1772750;79;21051;-74
2022/02/28 04:54:54;;;;;;;4.85;2.70;;;;;;;;;;1777474;79;21008;-75
2022/02/28 04:57:22;;;;;;;6.12;3.50;;;;;;;;;;1768643;79;20997;-74
2022/02/28 04:59:50;;;;;;;6.62;3.42;;;;;;;;;;1791575;79;21004;-75
2022/02/28 05:02:17;;;;;;;8.88;3.12;;;;;;;;;;1792632;79;22106;-74
2022/02/28 05:04:51;;;;;;;6.20;2.87;;;;;;;;;;1776014;79;21044;-75
2022/02/28 05:07:18;;;;;;;6.50;2.83;;;;;;;;;;1785418;78;21523;-79
2022/02/28 05:09:44;;;;;;;7.60;3.80;;;;;;;;;;1760647;80;21035;-79
2022/02/28 05:12:10;;;;;;;5.55;3.12;;;;;;;;;;1764949;80;21503;-79
2022/02/28 05:14:37;;;;;;;5.25;3.12;;;;;;;;;;1716192;82;20983;-79
2022/02/28 05:17:04;;;;;;;7.10;3.30;;;;;;;;;;1754587;80;21028;-81
2022/02/28 05:19:32;;;;;;;5.40;3.30;;;;;;;;;;1736392;81;21057;-79
2022/02/28 05:22:02;;;;;;;4.35;2.52;;;;;;;;;;1733231;81;21068;-78
2022/02/28 05:24:29;;;;;;;4.25;2.37;;;;;;;;;;1722313;81;21048;-79
2022/02/28 05:26:55;;;;;;;4.72;2.50;;;;;;;;;;1710203;82;21008;-79
2022/02/28 05:29:24;;;;;;;3.67;2.50;;;;;;;;;;1774647;79;21012;-81
2022/02/28 05:31:51;;;;;;;3.85;2.50;;;;;;;;;;1788614;79;21021;-79
2022/02/28 05:34:37;;;;;;;4.72;2.35;;;;;;;;;;1754580;80;21006;-79
2022/02/28 05:37:04;;;;;;;4.47;2.15;;;;;;;;;;1777613;80;21020;-80
2022/02/28 05:39:38;;;;;;;3.90;2.37;;;;;;;;;;1771542;79;20992;-75
2022/02/28 05:42:04;;;;;;;4.53;2.65;;;;;;;;;;1762690;80;21588;-71
2022/02/28 05:44:32;;;;;;;5.42;2.98;;;;;;;;;;1776670;80;21461;-70
2022/02/28 05:46:58;;;;;;;3.12;2.08;;;;;;;;;;1739087;81;21181;-73
2022/02/28 05:49:38;;;;;;;3.08;2.20;;;;;;;;;;1740615;81;21448;-71
2022/02/28 05:52:04;;;;;;;3.72;2.50;;;;;;;;;;1748755;81;21032;-73
2022/02/28 05:54:31;;;;;;;4.70;2.85;;;;;;;;;;1767472;80;21020;-73
2022/02/28 05:56:57;;;;;;;4.17;2.55;;;;;;;;;;1755283;79;21028;-73
2022/02/28 05:59:23;;;;;;;3.85;2.55;;;;;;;;;;1719080;81;21120;-72
2022/02/28 06:01:49;;;;;;;5.40;2.50;;;;;;;;;;1731403;80;21581;-71
2022/02/28 06:04:15;;;;;;;4.65;2.58;;;;;;;;;;1739896;80;20987;-73
2022/02/28 06:06:43;;;;;;;2.83;2.25;;;;;;;;;;1721089;81;21091;-72
2022/02/28 06:09:08;;;;;;;2.87;2.10;;;;;;;;;;1696849;81;21016;-72
2022/02/28 06:11:34;;;;;;;3.08;2.00;;;;;;;;;;1740288;81;21127;-73
2022/02/28 06:14:00;;;;;;;4.20;2.60;;;;;;;;;;1711056;81;21050;-72
2022/02/28 06:16:26;;;;;;;2.77;2.00;;;;;;;;;;1737562;81;20965;-72
2022/02/28 06:18:52;;;;;;;3.10;2.30;;;;;;;;;;1694819;81;21522;-73
2022/02/28 06:21:20;;;;;;;2.58;2.00;;;;;;;;;;1725891;81;21051;-72
2022/02/28 06:23:46;;;;;;;2.37;2.05;;;;;;;;;;1724668;81;21605;-72
2022/02/28 06:26:12;;;;;;;2.10;1.70;;;;;;;;;;1724605;81;21066;-70
2022/02/28 06:28:38;;;;;;;2.70;1.92;;;;;;;;;;1722644;81;20964;-73
2022/02/28 06:31:04;;;;;;;2.90;2.00;;;;;;;;;;1725263;81;21000;-72
2022/02/28 06:33:30;;;;;;;3.37;2.30;;;;;;;;;;1725155;81;21029;-71
2022/02/28 06:35:56;;;;;;;4.45;2.27;;;;;;;;;;1740198;80;20983;-69
2022/02/28 06:38:22;;;;;;;3.42;2.10;;;;;;;;;;1738648;80;22304;-71
2022/02/28 06:40:48;;;;;;;2.40;1.57;;;;;;;;;;1755313;80;20960;-69
2022/02/28 06:43:15;;;;;;;5.12;2.02;;;;;;;;;;1742334;82;21033;-70
2022/02/28 06:45:41;;;;;;;2.47;1.90;;;;;;;;;;1712171;82;21038;-70
2022/02/28 06:48:07;;;;;;;3.00;2.00;;;;;;;;;;1734018;82;21087;-70
2022/02/28 06:50:33;;;;;;;4.28;2.47;;;;;;;;;;1739617;82;21011;-70
2022/02/28 06:52:59;;;;;;;4.62;2.40;;;;;;;;;;1733616;82;21578;-70
2022/02/28 06:55:27;;;;;;;2.12;1.80;;;;;;;;;;1743116;82;21053;-69
2022/02/28 06:57:53;;;;;;;4.03;2.83;;;;;;;;;;1738763;82;20972;-68
2022/02/28 07:00:19;;;;;;;4.20;1.90;;;;;;;;;;1711823;82;21106;-69
2022/02/28 07:02:49;;;;;;;5.15;2.40;;;;;;;;;;1731129;82;20991;-68
2022/02/28 07:05:16;;;;;;;5.67;2.12;;;;;;;;;;1752819;80;21066;-68
2022/02/28 07:07:43;;;;;;;2.40;2.02;;;;;;;;;;1747704;80;20983;-68
2022/02/28 07:10:09;;;;;;;3.17;2.45;;;;;;;;;;1740260;81;20983;-68
2022/02/28 07:12:37;;;;;;;2.87;2.17;;;;;;;;;;1749717;80;21529;-68
2022/02/28 07:15:05;;;;;;;4.17;2.20;;;;;;;;;;1757714;80;21284;-68
2022/02/28 07:17:33;;;;;;;3.55;2.27;;;;;;;;;;1761571;81;20976;-69
2022/02/28 07:19:59;;;;;;;3.55;2.40;;;;;;;;;;1715640;83;21113;-68
2022/02/28 07:23:20;;;;;;;3.12;2.10;;;;;;;;;;1792149;79;22719;-69
2022/02/28 07:25:46;;;;;;;4.80;2.20;;;;;;;;;;1758390;81;21067;-69
2022/02/28 07:28:12;;;;;;;3.90;2.40;;;;;;;;;;1740445;81;21060;-69
2022/02/28 07:30:38;;;;;;;2.45;2.25;;;;;;;;;;1759869;81;21523;-68
2022/02/28 07:33:05;;;;;;;4.22;2.20;;;;;;;;;;1712403;83;21743;-68
2022/02/28 07:35:33;;;;;;;3.22;2.20;;;;;;;;;;1714471;84;21010;-68
2022/02/28 07:38:00;;;;;;;3.98;2.27;;;;;;;;;;1709434;84;21056;-69
2022/02/28 07:40:26;;;;;;;3.65;2.58;;;;;;;;;;1708851;84;21024;-67
2022/02/28 07:42:52;;;;;;;3.27;2.30;;;;;;;;;;1701937;84;21101;-68
2022/02/28 07:45:21;;;;;;;3.47;2.20;;;;;;;;;;1701799;84;21075;-67
2022/02/28 07:47:46;;;;;;;4.12;2.42;;;;;;;;;;1706332;84;21559;-68
2022/02/28 07:50:12;;;;;;;5.17;2.25;;;;;;;;;;1702147;84;21631;-68
2022/02/28 07:52:38;;;;;;;2.77;2.00;;;;;;;;;;1713241;84;21087;-68
2022/02/28 07:55:06;;;;;;;6.75;2.75;;;;;;;;;;1713702;84;21642;-68
2022/02/28 07:57:32;;;;;;;4.30;2.50;;;;;;;;;;1705208;84;21044;-73
2022/02/28 07:59:59;;;;;;;4.35;2.15;;;;;;;;;;1672319;85;21661;-69
2022/02/28 08:02:25;;;;;;;2.60;2.02;;;;;;;;;;1703458;84;21002;-70
2022/02/28 08:04:51;;;;;;;3.50;2.20;;;;;;;;;;1705877;84;20987;-72
2022/02/28 08:07:17;;;;;;;3.58;2.27;;;;;;;;;;1674285;84;21519;-71
2022/02/28 08:09:43;;;;;;;3.22;2.22;;;;;;;;;;1712943;83;20987;-71
2022/02/28 08:12:09;;;;;;;3.92;2.55;;;;;;;;;;1684628;83;21079;-71
2022/02/28 08:14:39;;;;;;;4.80;2.55;;;;;;;;;;1710361;84;21061;-71
2022/02/28 08:17:05;;;;;;;4.17;2.52;;;;;;;;;;1705218;84;21105;-69
2022/02/28 08:19:31;;;;;;;3.65;2.10;;;;;;;;;;1712446;83;21096;-69
2022/02/28 08:21:57;;;;;;;2.80;1.92;;;;;;;;;;1706642;84;21018;-70
2022/02/28 08:24:22;;;;;;;3.92;2.30;;;;;;;;;;1748599;82;21516;-70
2022/02/28 08:26:48;;;;;;;4.85;2.10;;;;;;;;;;1746546;81;21032;-69
2022/02/28 08:29:14;;;;;;;2.47;1.90;;;;;;;;;;1721842;82;21081;-69
2022/02/28 08:31:40;;;;;;;5.17;2.45;;;;;;;;;;1721784;82;21575;-69
2022/02/28 08:34:08;;;;;;;3.58;2.40;;;;;;;;;;1743304;81;21089;-69
2022/02/28 08:36:34;;;;;;;3.95;2.17;;;;;;;;;;1747153;81;21021;-70
2022/02/28 08:39:00;;;;;;;3.85;2.45;;;;;;;;;;1743624;82;21500;-68
2022/02/28 08:41:26;;;;;;;3.47;2.12;;;;;;;;;;1736623;82;21115;-69
2022/02/28 08:43:52;;;;;;;3.42;2.30;;;;;;;;;;1735138;82;21081;-69
2022/02/28 08:46:19;;;;;;;4.60;1.98;;;;;;;;;;1728235;82;20972;-69
2022/02/28 08:48:45;;;;;;;4.50;2.30;;;;;;;;;;1729640;82;21019;-69
2022/02/28 08:51:13;;;;;;;3.47;2.08;;;;;;;;;;1728790;82;21070;-69
2022/02/28 08:53:39;;;;;;;5.35;2.52;;;;;;;;;;1733200;82;21023;-69
2022/02/28 08:56:05;;;;;;;3.40;1.98;;;;;;;;;;1740168;81;21966;-70
2022/02/28 08:58:32;;;;;;;2.95;2.20;;;;;;;;;;1760275;81;21021;-70
2022/02/28 09:01:00;;;;;;;2.67;2.10;;;;;;;;;;1750776;81;21522;-70
2022/02/28 09:03:26;;;;;;;4.47;2.45;;;;;;;;;;1749115;81;21032;-69
2022/02/28 09:05:52;;;;;;;3.98;2.30;;;;;;;;;;1755604;81;21340;-69
2022/02/28 09:08:18;;;;;;;3.52;2.40;;;;;;;;;;1751614;81;21036;-68
2022/02/28 09:10:44;;;;;;;3.02;1.82;;;;;;;;;;1737141;82;21608;-69
2022/02/28 09:13:10;;;;;;;3.20;2.20;;;;;;;;;;1730410;81;21089;-69
2022/02/28 09:15:36;;;;;;;3.10;2.10;;;;;;;;;;1750623;81;21557;-70
2022/02/28 09:18:12;;;;;;;2.17;1.62;;;;;;;;;;1751100;80;21049;-69
2022/02/28 09:20:34;;;;;;;3.92;2.37;;;;;;;;;;1745723;80;21120;-69
2022/02/28 09:23:00;;;;;;;5.83;2.37;;;;;;;;;;1745953;81;21533;-71
2022/02/28 09:25:28;;;;;;;2.75;1.85;;;;;;;;;;1739395;82;21057;-70
2022/02/28 09:27:55;;;;;;;5.00;2.47;;;;;;;;;;1748102;81;21057;-70
2022/02/28 09:30:21;;;;;;;4.03;2.10;;;;;;;;;;1747316;82;22056;-70
2022/02/28 09:32:51;;;;;;;4.00;2.15;;;;;;;;;;1746662;81;21045;-69
2022/02/28 09:35:17;;;;;;;4.12;2.27;;;;;;;;;;1760622;81;21483;-69
2022/02/28 09:37:43;;;;;;;4.42;2.08;;;;;;;;;;1746959;81;21009;-69
2022/02/28 09:40:09;;;;;;;4.70;2.35;;;;;;;;;;1729181;82;20974;-70
2022/02/28 09:42:38;;;;;;;3.87;2.45;;;;;;;;;;1741801;82;21041;-69
2022/02/28 09:45:23;;;;;;;3.22;2.00;;;;;;;;;;1746801;81;21021;-70
2022/02/28 09:47:51;;;;;;;3.80;2.20;;;;;;;;;;1745537;81;20994;-70
2022/02/28 09:50:36;;;;;;;2.60;1.90;;;;;;;;;;1760156;81;21043;-70
2022/02/28 09:53:21;;;;;;;3.10;2.00;;;;;;;;;;1759115;81;20958;-69
2022/02/28 09:56:02;;;;;;;3.65;2.33;;;;;;;;;;1745884;82;21108;-70
2022/02/28 09:58:45;;;;;;;2.67;2.10;;;;;;;;;;1728550;82;20995;-69
2022/02/28 10:01:12;;;;;;;3.65;2.37;;;;;;;;;;1727553;82;21017;-70
2022/02/28 10:03:40;;;;;;;3.83;2.67;;;;;;;;;;1737159;82;21088;-70
2022/02/28 10:06:06;;;;;;;5.28;2.40;;;;;;;;;;1747557;82;20969;-70
2022/02/28 10:08:33;;;;;;;4.55;2.47;;;;;;;;;;1737271;82;21109;-69
2022/02/28 10:11:01;;;;;;;4.00;2.70;;;;;;;;;;1709693;84;22253;-70
2022/02/28 10:13:28;;;;;;;3.47;2.20;;;;;;;;;;1750428;81;21037;-70
2022/02/28 10:15:57;;;;;;;3.70;2.40;;;;;;;;;;1726540;82;21560;-70
2022/02/28 10:18:24;;;;;;;4.15;2.33;;;;;;;;;;1736915;82;21029;-70
2022/02/28 10:20:50;;;;;;;4.70;2.58;;;;;;;;;;1746718;81;21072;-69
2022/02/28 10:23:16;;;;;;;3.83;2.37;;;;;;;;;;1750969;80;21076;-69
2022/02/28 10:25:49;;;;;;;3.92;2.50;;;;;;;;;;1727142;82;21008;-70
2022/02/28 10:28:24;;;;;;;5.08;2.52;;;;;;;;;;1745907;82;21049;-70
2022/02/28 10:31:11;;;;;;;3.87;2.58;;;;;;;;;;1751639;82;20969;-73
2022/02/28 10:33:56;;;;;;;3.50;2.35;;;;;;;;;;1725871;82;21647;-71
2022/02/28 10:36:24;;;;;;;3.47;2.05;;;;;;;;;;1742983;82;21069;-70
2022/02/28 10:38:55;;;;;;;2.60;1.98;;;;;;;;;;1757108;80;20990;-69
2022/02/28 10:41:26;;;;;;;3.58;2.33;;;;;;;;;;1729529;82;22036;-69
2022/02/28 10:43:55;;;;;;;2.60;1.92;;;;;;;;;;1731310;81;21513;-71
2022/02/28 10:46:25;;;;;;;3.55;2.20;;;;;;;;;;1754762;81;21060;-71
2022/02/28 10:49:02;;;;;;;3.83;2.33;;;;;;;;;;1725119;82;21057;-70
2022/02/28 10:51:28;;;;;;;5.37;2.00;;;;;;;;;;1755855;82;21527;-70
2022/02/28 10:54:08;;;;;;;4.20;2.20;;;;;;;;;;1757557;80;20985;-70
2022/02/28 10:56:49;;;;;;;1.95;1.45;;;;;;;;;;1756327;80;21017;-71
2022/02/28 10:59:15;;;;;;;4.05;2.00;;;;;;;;;;1735104;82;21085;-71
2022/02/28 11:01:42;;;;;;;2.52;1.98;;;;;;;;;;1769988;80;22316;-70
2022/02/28 11:04:09;;;;;;;3.35;2.10;;;;;;;;;;1758804;80;21028;-75
2022/02/28 11:06:35;;;;;;;3.27;2.00;;;;;;;;;;1756100;80;21047;-71
2022/02/28 11:09:01;;;;;;;2.50;1.80;;;;;;;;;;1745309;82;21484;-71
2022/02/28 11:11:27;;;;;;;2.80;1.77;;;;;;;;;;1725984;82;21013;-71
2022/02/28 11:13:55;;;;;;;2.27;1.72;;;;;;;;;;1751291;82;21029;-70
2022/02/28 11:16:21;;;;;;;3.67;1.87;;;;;;;;;;1725406;82;21583;-71
2022/02/28 11:18:48;;;;;;;2.52;1.90;;;;;;;;;;1729506;81;21045;-71
2022/02/28 11:21:13;;;;;;;2.33;1.70;;;;;;;;;;1752513;82;21085;-70
2022/02/28 11:23:46;;;;;;;3.58;2.10;;;;;;;;;;1747872;80;21061;-70
2022/02/28 11:26:12;;;;;;;3.10;1.80;;;;;;;;;;1738340;82;21528;-69
2022/02/28 11:28:38;;;;;;;2.50;1.67;;;;;;;;;;1743056;81;21073;-74
2022/02/28 11:31:07;;;;;;;2.62;1.75;;;;;;;;;;1742962;80;21599;-70
2022/02/28 11:33:33;;;;;;;2.80;1.85;;;;;;;;;;1704818;82;21567;-70
2022/02/28 11:35:59;;;;;;;4.72;1.77;;;;;;;;;;1697374;83;21125;-74
2022/02/28 11:38:27;;;;;;;2.20;1.57;;;;;;;;;;1749253;81;21021;-73
2022/02/28 11:40:55;;;;;;;3.50;1.85;;;;;;;;;;1745610;81;21578;-71
2022/02/28 11:43:22;;;;;;;2.40;1.70;;;;;;;;;;1746772;81;21699;-73
2022/02/28 11:45:52;;;;;;;3.22;1.82;;;;;;;;;;1745524;81;20974;-71
2022/02/28 11:48:20;;;;;;;2.00;1.80;;;;;;;;;;1742436;80;21461;-69
2022/02/28 11:50:50;;;;;;;3.10;1.80;;;;;;;;;;1744722;80;21527;-70
2022/02/28 11:53:36;;;;;;;3.52;1.90;;;;;;;;;;1742045;82;21041;-71
2022/02/28 11:56:03;;;;;;;2.62;1.90;;;;;;;;;;1702993;84;21017;-70
2022/02/28 11:58:32;;;;;;;2.20;1.82;;;;;;;;;;1737255;82;21097;-69
2022/02/28 12:01:08;;;;;;;2.90;1.77;;;;;;;;;;1730229;82;21043;-71
2022/02/28 12:03:36;;;;;;;2.85;1.80;;;;;;;;;;1717435;81;21528;-70
2022/02/28 12:06:03;;;;;;;3.92;1.65;;;;;;;;;;1734140;81;21482;-69
2022/02/28 12:08:34;;;;;;;2.25;1.42;;;;;;;;;;1768054;80;21061;-70
2022/02/28 12:11:02;;;;;;;2.17;1.57;;;;;;;;;;1748815;81;21070;-69
2022/02/28 12:13:31;;;;;;;2.15;1.50;;;;;;;;;;1742749;79;21028;-71
2022/02/28 12:15:57;;;;;;;3.90;1.90;;;;;;;;;;1757564;80;21031;-72
2022/02/28 12:18:22;;;;;;;2.65;1.72;;;;;;;;;;1754797;80;22150;-69
2022/02/28 12:20:51;;;;;;;1.85;1.40;;;;;;;;;;1752162;80;21029;-71
2022/02/28 12:23:21;;;;;;;2.62;1.60;;;;;;;;;;1754115;80;21043;-71
2022/02/28 12:25:47;;;;;;;2.30;1.60;;;;;;;;;;1757768;80;21496;-69
2022/02/28 12:28:17;;;;;;;3.60;1.87;;;;;;;;;;1762286;80;21036;-71
2022/02/28 12:30:44;;;;;;;2.70;1.60;;;;;;;;;;1733978;80;21578;-72
2022/02/28 12:33:12;;;;;;;2.25;1.70;;;;;;;;;;1778862;80;21012;-70
2022/02/28 12:35:39;;;;;;;3.20;1.70;;;;;;;;;;1775284;80;21515;-69
2022/02/28 12:38:05;;;;;;;3.72;1.70;;;;;;;;;;1746629;81;21999;-71
2022/02/28 12:40:31;;;;;;;2.95;1.60;;;;;;;;;;1761048;80;20989;-70
2022/02/28 12:42:58;;;;;;;2.02;1.50;;;;;;;;;;1779538;80;21100;-70
2022/02/28 12:45:24;;;;;;;2.30;1.67;;;;;;;;;;1766054;80;20984;-70
2022/02/28 12:47:50;;;;;;;2.30;1.80;;;;;;;;;;1768674;80;21036;-71
2022/02/28 12:50:19;;;;;;;1.75;1.50;;;;;;;;;;1771344;80;21036;-71
2022/02/28 12:52:51;;;;;;;2.20;1.67;;;;;;;;;;1761098;80;20981;-70
2022/02/28 12:55:18;;;;;;;1.65;1.55;;;;;;;;;;1756870;80;21021;-71
2022/02/28 12:57:45;;;;;;;4.78;1.80;;;;;;;;;;1736453;80;21118;-71
2022/02/28 13:00:12;;;;;;;2.12;1.70;;;;;;;;;;1767122;80;21016;-69
2022/02/28 13:02:38;;;;;;;5.12;1.80;;;;;;;;;;1750013;80;21066;-71
2022/02/28 13:05:04;;;;;;;3.50;1.90;;;;;;;;;;1765145;80;21069;-70
2022/02/28 13:07:31;;;;;;;4.10;1.80;;;;;;;;;;1746785;80;21571;-69
2022/02/28 13:09:59;;;;;;;2.20;1.50;;;;;;;;;;1765134;80;21520;-70
2022/02/28 13:12:26;;;;;;;2.25;1.62;;;;;;;;;;1741304;81;21116;-70
2022/02/28 13:14:51;;;;;;;3.27;1.92;;;;;;;;;;1761418;81;20973;-71
2022/02/28 13:17:22;;;;;;;2.30;1.62;;;;;;;;;;1747227;80;21043;-71
2022/02/28 13:19:49;;;;;;;2.45;1.62;;;;;;;;;;1768465;80;21547;-71
2022/02/28 13:22:21;;;;;;;1.57;1.40;;;;;;;;;;1760343;81;21024;-71
2022/02/28 13:24:46;;;;;;;2.92;1.70;;;;;;;;;;1743528;81;21515;-71
2022/02/28 13:27:12;;;;;;;3.22;1.65;;;;;;;;;;1729742;81;21540;-71
2022/02/28 13:29:39;;;;;;;2.50;1.60;;;;;;;;;;1765566;80;21004;-71
2022/02/28 13:32:09;;;;;;;3.15;1.75;;;;;;;;;;1754536;80;21049;-70
2022/02/28 13:34:38;;;;;;;3.45;2.00;;;;;;;;;;1726157;81;21018;-70
2022/02/28 13:37:04;;;;;;;2.10;1.90;;;;;;;;;;1740182;80;21491;-71
2022/02/28 13:39:34;;;;;;;3.15;1.80;;;;;;;;;;1756420;81;21073;-70
2022/02/28 13:42:07;;;;;;;2.50;1.60;;;;;;;;;;1759547;80;21001;-71
2022/02/28 13:44:34;;;;;;;2.98;1.80;;;;;;;;;;1766885;80;21583;-70
2022/02/28 13:47:02;;;;;;;4.58;1.95;;;;;;;;;;1744591;81;21551;-71
2022/02/28 13:49:38;;;;;;;3.22;2.00;;;;;;;;;;1770637;81;21004;-71
2022/02/28 13:52:07;;;;;;;2.60;1.77;;;;;;;;;;1762061;80;21048;-70
2022/02/28 13:54:34;;;;;;;2.70;1.80;;;;;;;;;;1755923;80;21544;-71
2022/02/28 13:57:08;;;;;;;2.52;1.70;;;;;;;;;;1745903;80;21102;-70
2022/02/28 13:59:34;;;;;;;2.42;1.67;;;;;;;;;;1749059;80;21059;-71
2022/02/28 14:02:00;;;;;;;3.17;2.10;;;;;;;;;;1742366;82;21631;-72
2022/02/28 14:04:35;;;;;;;3.42;1.95;;;;;;;;;;1744418;81;21077;-70
2022/02/28 14:07:02;;;;;;;3.33;2.00;;;;;;;;;;1747137;82;21029;-71
2022/02/28 14:09:29;;;;;;;3.62;1.95;;;;;;;;;;1758852;81;21060;-72
2022/02/28 14:11:55;;;;;;;2.90;2.00;;;;;;;;;;1746942;82;20962;-71
2022/02/28 14:14:21;;;;;;;2.75;2.00;;;;;;;;;;1755493;81;20993;-71
2022/02/28 14:17:00;;;;;;;2.30;1.65;;;;;;;;;;1748500;81;21524;-71
2022/02/28 14:19:39;;;;;;;3.98;1.80;;;;;;;;;;1745324;82;21049;-70
2022/02/28 14:22:14;;;;;;;4.45;2.10;;;;;;;;;;1734752;81;21033;-71
2022/02/28 14:24:50;;;;;;;4.58;3.10;;;;;;;;;;1777262;80;21642;-70
2022/02/28 14:27:37;;;;;;;3.05;1.90;;;;;;;;;;1763325;80;21090;-70
2022/02/28 14:30:21;;;;;;;3.65;2.00;;;;;;;;;;1761078;81;21017;-71
2022/02/28 14:33:03;;;;;;;3.35;2.30;;;;;;;;;;1744024;80;21040;-70
2022/02/28 14:35:29;;;;;;;3.17;2.17;;;;;;;;;;1782624;80;21039;-71
2022/02/28 14:37:57;;;;;;;3.22;2.00;;;;;;;;;;1760842;80;21539;-71
2022/02/28 14:40:23;;;;;;;5.97;2.45;;;;;;;;;;1742337;81;21559;-70
2022/02/28 14:42:52;;;;;;;4.10;2.10;;;;;;;;;;1759209;81;22130;-72
2022/02/28 14:45:18;;;;;;;3.65;2.40;;;;;;;;;;1762275;80;21590;-70
2022/02/28 14:47:44;;;;;;;4.22;2.50;;;;;;;;;;1739226;81;21033;-69
2022/02/28 14:50:13;;;;;;;4.53;2.90;;;;;;;;;;1754618;81;22221;-70
2022/02/28 14:52:39;;;;;;;3.10;2.10;;;;;;;;;;1751512;81;21019;-70